sensor_id;sensor_type;location;lat;lon;timestamp;P1;durP1;ratioP1;P2;durP2;ratioP2
51724;SDS011;37801;53.224;6.552;2022-10-16T00:01:59;7.22;;;2.13;;
51724;SDS011;37801;53.224;6.552;2022-10-16T00:04:24;6.55;;;2.00;;
51724;SDS011;37801;53.224;6.552;2022-10-16T00:06:50;7.55;;;1.98;;
51724;SDS011;37801;53.224;6.552;2022-10-16T00:09:16;5.90;;;2.08;;
51724;SDS011;37801;53.224;6.552;2022-10-16T00:11:42;6.57;;;1.55;;
51724;SDS011;37801;53.224;6.552;2022-10-16T00:14:10;4.70;;;1.50;;
51724;SDS011;37801;53.224;6.552;2022-10-16T00:16:38;13.48;;;2.08;;
51724;SDS011;37801;53.224;6.552;2022-10-16T00:19:04;8.05;;;1.85;;
51724;SDS011;37801;53.224;6.552;2022-10-16T00:21:31;9.95;;;2.08;;
51724;SDS011;37801;53.224;6.552;2022-10-16T00:23:58;7.50;;;1.75;;
51724;SDS011;37801;53.224;6.552;2022-10-16T00:26:27;6.30;;;1.92;;
51724;SDS011;37801;53.224;6.552;2022-10-16T00:28:54;6.68;;;1.70;;
51724;SDS011;37801;53.224;6.552;2022-10-16T00:31:20;8.25;;;2.00;;
51724;SDS011;37801;53.224;6.552;2022-10-16T00:33:48;4.93;;;1.88;;
51724;SDS011;37801;53.224;6.552;2022-10-16T00:36:15;5.28;;;1.58;;
51724;SDS011;37801;53.224;6.552;2022-10-16T00:38:42;4.70;;;1.55;;
51724;SDS011;37801;53.224;6.552;2022-10-16T00:41:10;7.32;;;1.60;;
51724;SDS011;37801;53.224;6.552;2022-10-16T00:43:48;4.32;;;1.55;;
51724;SDS011;37801;53.224;6.552;2022-10-16T00:46:19;5.30;;;1.90;;
51724;SDS011;37801;53.224;6.552;2022-10-16T00:51:37;4.07;;;1.40;;
51724;SDS011;37801;53.224;6.552;2022-10-16T00:54:12;7.43;;;1.80;;
51724;SDS011;37801;53.224;6.552;2022-10-16T00:56:40;3.70;;;1.38;;
51724;SDS011;37801;53.224;6.552;2022-10-16T00:59:12;3.53;;;1.50;;
51724;SDS011;37801;53.224;6.552;2022-10-16T01:01:43;6.68;;;2.03;;
51724;SDS011;37801;53.224;6.552;2022-10-16T01:04:08;7.07;;;1.55;;
51724;SDS011;37801;53.224;6.552;2022-10-16T01:06:56;5.53;;;1.67;;
51724;SDS011;37801;53.224;6.552;2022-10-16T01:09:37;5.65;;;1.42;;
51724;SDS011;37801;53.224;6.552;2022-10-16T01:12:48;3.95;;;1.13;;
51724;SDS011;37801;53.224;6.552;2022-10-16T01:15:27;4.40;;;1.48;;
51724;SDS011;37801;53.224;6.552;2022-10-16T01:18:00;3.25;;;1.30;;
51724;SDS011;37801;53.224;6.552;2022-10-16T01:23:36;5.38;;;1.90;;
51724;SDS011;37801;53.224;6.552;2022-10-16T01:28:55;4.95;;;1.25;;
51724;SDS011;37801;53.224;6.552;2022-10-16T01:31:32;2.92;;;1.30;;
51724;SDS011;37801;53.224;6.552;2022-10-16T01:36:54;4.32;;;1.60;;
51724;SDS011;37801;53.224;6.552;2022-10-16T01:39:27;4.28;;;1.10;;
51724;SDS011;37801;53.224;6.552;2022-10-16T01:41:58;5.50;;;1.58;;
51724;SDS011;37801;53.224;6.552;2022-10-16T01:44:32;5.20;;;1.60;;
51724;SDS011;37801;53.224;6.552;2022-10-16T01:47:01;4.45;;;1.30;;
51724;SDS011;37801;53.224;6.552;2022-10-16T01:49:30;4.07;;;1.00;;
51724;SDS011;37801;53.224;6.552;2022-10-16T01:52:00;3.95;;;1.40;;
51724;SDS011;37801;53.224;6.552;2022-10-16T01:54:29;10.80;;;1.70;;
51724;SDS011;37801;53.224;6.552;2022-10-16T01:56:57;2.65;;;1.13;;
51724;SDS011;37801;53.224;6.552;2022-10-16T01:59:25;4.10;;;1.40;;
51724;SDS011;37801;53.224;6.552;2022-10-16T02:01:55;8.20;;;1.50;;
51724;SDS011;37801;53.224;6.552;2022-10-16T02:04:28;5.05;;;1.75;;
51724;SDS011;37801;53.224;6.552;2022-10-16T02:07:07;4.05;;;1.17;;
51724;SDS011;37801;53.224;6.552;2022-10-16T02:09:33;4.63;;;1.55;;
51724;SDS011;37801;53.224;6.552;2022-10-16T02:12:01;6.82;;;1.35;;
51724;SDS011;37801;53.224;6.552;2022-10-16T02:14:33;6.60;;;1.42;;
51724;SDS011;37801;53.224;6.552;2022-10-16T02:17:09;2.95;;;1.33;;
51724;SDS011;37801;53.224;6.552;2022-10-16T02:19:40;7.80;;;1.83;;
51724;SDS011;37801;53.224;6.552;2022-10-16T02:22:07;5.78;;;1.40;;
51724;SDS011;37801;53.224;6.552;2022-10-16T02:25:09;3.78;;;1.33;;
51724;SDS011;37801;53.224;6.552;2022-10-16T02:27:34;5.65;;;1.35;;
51724;SDS011;37801;53.224;6.552;2022-10-16T02:32:43;6.43;;;1.80;;
51724;SDS011;37801;53.224;6.552;2022-10-16T02:35:11;4.93;;;1.42;;
51724;SDS011;37801;53.224;6.552;2022-10-16T02:37:38;3.00;;;1.20;;
51724;SDS011;37801;53.224;6.552;2022-10-16T02:40:05;3.38;;;1.35;;
51724;SDS011;37801;53.224;6.552;2022-10-16T02:42:36;4.75;;;1.50;;
51724;SDS011;37801;53.224;6.552;2022-10-16T02:45:03;6.95;;;1.38;;
51724;SDS011;37801;53.224;6.552;2022-10-16T02:47:29;3.55;;;1.50;;
51724;SDS011;37801;53.224;6.552;2022-10-16T02:49:55;2.83;;;1.30;;
51724;SDS011;37801;53.224;6.552;2022-10-16T02:52:21;3.53;;;1.27;;
51724;SDS011;37801;53.224;6.552;2022-10-16T02:54:46;2.08;;;1.13;;
51724;SDS011;37801;53.224;6.552;2022-10-16T02:57:12;4.68;;;1.23;;
51724;SDS011;37801;53.224;6.552;2022-10-16T02:59:38;4.28;;;1.13;;
51724;SDS011;37801;53.224;6.552;2022-10-16T03:02:04;4.07;;;1.40;;
51724;SDS011;37801;53.224;6.552;2022-10-16T03:04:30;8.50;;;1.42;;
51724;SDS011;37801;53.224;6.552;2022-10-16T03:06:56;5.00;;;1.30;;
51724;SDS011;37801;53.224;6.552;2022-10-16T03:09:21;5.88;;;1.60;;
51724;SDS011;37801;53.224;6.552;2022-10-16T03:11:47;4.88;;;1.52;;
51724;SDS011;37801;53.224;6.552;2022-10-16T03:14:13;2.63;;;1.40;;
51724;SDS011;37801;53.224;6.552;2022-10-16T03:16:38;3.55;;;1.13;;
51724;SDS011;37801;53.224;6.552;2022-10-16T03:19:04;3.85;;;1.15;;
51724;SDS011;37801;53.224;6.552;2022-10-16T03:21:30;4.53;;;1.45;;
51724;SDS011;37801;53.224;6.552;2022-10-16T03:23:55;3.45;;;1.20;;
51724;SDS011;37801;53.224;6.552;2022-10-16T03:26:21;2.90;;;1.20;;
51724;SDS011;37801;53.224;6.552;2022-10-16T03:28:47;3.13;;;1.30;;
51724;SDS011;37801;53.224;6.552;2022-10-16T03:31:12;1.73;;;1.00;;
51724;SDS011;37801;53.224;6.552;2022-10-16T03:33:38;2.55;;;1.20;;
51724;SDS011;37801;53.224;6.552;2022-10-16T03:36:04;3.70;;;1.33;;
51724;SDS011;37801;53.224;6.552;2022-10-16T03:38:30;3.17;;;1.17;;
51724;SDS011;37801;53.224;6.552;2022-10-16T03:40:55;3.83;;;1.48;;
51724;SDS011;37801;53.224;6.552;2022-10-16T03:43:21;3.85;;;1.30;;
51724;SDS011;37801;53.224;6.552;2022-10-16T03:45:47;6.47;;;1.40;;
51724;SDS011;37801;53.224;6.552;2022-10-16T03:48:12;4.88;;;1.38;;
51724;SDS011;37801;53.224;6.552;2022-10-16T03:50:38;2.75;;;1.30;;
51724;SDS011;37801;53.224;6.552;2022-10-16T03:53:04;4.75;;;1.30;;
51724;SDS011;37801;53.224;6.552;2022-10-16T03:55:29;1.88;;;1.10;;
51724;SDS011;37801;53.224;6.552;2022-10-16T03:57:55;3.65;;;1.13;;
51724;SDS011;37801;53.224;6.552;2022-10-16T04:00:21;2.33;;;1.02;;
51724;SDS011;37801;53.224;6.552;2022-10-16T04:02:47;3.33;;;1.20;;
51724;SDS011;37801;53.224;6.552;2022-10-16T04:05:13;4.72;;;1.20;;
51724;SDS011;37801;53.224;6.552;2022-10-16T04:07:38;3.22;;;1.25;;
51724;SDS011;37801;53.224;6.552;2022-10-16T04:10:04;2.10;;;1.27;;
51724;SDS011;37801;53.224;6.552;2022-10-16T04:12:30;2.58;;;1.23;;
51724;SDS011;37801;53.224;6.552;2022-10-16T04:14:56;5.22;;;1.33;;
51724;SDS011;37801;53.224;6.552;2022-10-16T04:17:22;7.10;;;1.75;;
51724;SDS011;37801;53.224;6.552;2022-10-16T04:19:47;2.97;;;1.30;;
51724;SDS011;37801;53.224;6.552;2022-10-16T04:22:13;1.65;;;1.00;;
51724;SDS011;37801;53.224;6.552;2022-10-16T04:24:39;3.92;;;1.33;;
51724;SDS011;37801;53.224;6.552;2022-10-16T04:27:05;3.13;;;1.23;;
51724;SDS011;37801;53.224;6.552;2022-10-16T04:29:30;3.60;;;1.50;;
51724;SDS011;37801;53.224;6.552;2022-10-16T04:31:56;2.35;;;1.45;;
51724;SDS011;37801;53.224;6.552;2022-10-16T04:34:22;4.78;;;1.50;;
51724;SDS011;37801;53.224;6.552;2022-10-16T04:36:48;3.45;;;1.35;;
51724;SDS011;37801;53.224;6.552;2022-10-16T04:39:14;3.22;;;1.55;;
51724;SDS011;37801;53.224;6.552;2022-10-16T04:41:40;4.15;;;1.30;;
51724;SDS011;37801;53.224;6.552;2022-10-16T04:44:06;6.38;;;1.38;;
51724;SDS011;37801;53.224;6.552;2022-10-16T04:46:32;4.00;;;1.25;;
51724;SDS011;37801;53.224;6.552;2022-10-16T04:48:57;2.92;;;1.00;;
51724;SDS011;37801;53.224;6.552;2022-10-16T04:51:23;3.22;;;1.10;;
51724;SDS011;37801;53.224;6.552;2022-10-16T04:53:50;3.58;;;1.40;;
51724;SDS011;37801;53.224;6.552;2022-10-16T04:56:16;2.70;;;1.40;;
51724;SDS011;37801;53.224;6.552;2022-10-16T04:58:42;3.25;;;1.23;;
51724;SDS011;37801;53.224;6.552;2022-10-16T05:01:08;4.43;;;1.75;;
51724;SDS011;37801;53.224;6.552;2022-10-16T05:03:33;5.35;;;1.60;;
51724;SDS011;37801;53.224;6.552;2022-10-16T05:05:59;8.88;;;2.35;;
51724;SDS011;37801;53.224;6.552;2022-10-16T05:08:25;2.65;;;1.35;;
51724;SDS011;37801;53.224;6.552;2022-10-16T05:10:50;3.65;;;1.40;;
51724;SDS011;37801;53.224;6.552;2022-10-16T05:13:16;5.20;;;1.30;;
51724;SDS011;37801;53.224;6.552;2022-10-16T05:15:46;2.67;;;1.25;;
51724;SDS011;37801;53.224;6.552;2022-10-16T05:18:13;3.50;;;1.50;;
51724;SDS011;37801;53.224;6.552;2022-10-16T05:20:39;4.07;;;1.35;;
51724;SDS011;37801;53.224;6.552;2022-10-16T05:23:05;4.57;;;1.52;;
51724;SDS011;37801;53.224;6.552;2022-10-16T05:25:31;3.92;;;1.77;;
51724;SDS011;37801;53.224;6.552;2022-10-16T05:27:57;2.85;;;1.17;;
51724;SDS011;37801;53.224;6.552;2022-10-16T05:30:22;3.72;;;1.45;;
51724;SDS011;37801;53.224;6.552;2022-10-16T05:32:49;3.40;;;1.40;;
51724;SDS011;37801;53.224;6.552;2022-10-16T05:35:16;5.78;;;1.60;;
51724;SDS011;37801;53.224;6.552;2022-10-16T05:37:42;4.22;;;1.73;;
51724;SDS011;37801;53.224;6.552;2022-10-16T05:40:08;3.83;;;1.50;;
51724;SDS011;37801;53.224;6.552;2022-10-16T05:42:35;3.53;;;1.63;;
51724;SDS011;37801;53.224;6.552;2022-10-16T05:45:00;3.67;;;1.60;;
51724;SDS011;37801;53.224;6.552;2022-10-16T05:47:26;4.63;;;1.50;;
51724;SDS011;37801;53.224;6.552;2022-10-16T05:49:52;6.53;;;1.77;;
51724;SDS011;37801;53.224;6.552;2022-10-16T05:52:18;5.43;;;1.67;;
51724;SDS011;37801;53.224;6.552;2022-10-16T05:54:44;5.45;;;1.67;;
51724;SDS011;37801;53.224;6.552;2022-10-16T05:57:09;6.18;;;1.92;;
51724;SDS011;37801;53.224;6.552;2022-10-16T05:59:35;5.53;;;1.60;;
51724;SDS011;37801;53.224;6.552;2022-10-16T06:02:01;7.15;;;1.42;;
51724;SDS011;37801;53.224;6.552;2022-10-16T06:04:27;2.58;;;1.30;;
51724;SDS011;37801;53.224;6.552;2022-10-16T06:06:53;4.05;;;1.73;;
51724;SDS011;37801;53.224;6.552;2022-10-16T06:09:19;3.75;;;1.58;;
51724;SDS011;37801;53.224;6.552;2022-10-16T06:11:45;5.05;;;1.67;;
51724;SDS011;37801;53.224;6.552;2022-10-16T06:14:10;6.07;;;1.95;;
51724;SDS011;37801;53.224;6.552;2022-10-16T06:16:36;5.90;;;1.88;;
51724;SDS011;37801;53.224;6.552;2022-10-16T06:19:03;4.60;;;1.73;;
51724;SDS011;37801;53.224;6.552;2022-10-16T06:21:31;7.20;;;1.83;;
51724;SDS011;37801;53.224;6.552;2022-10-16T06:23:57;3.78;;;1.70;;
51724;SDS011;37801;53.224;6.552;2022-10-16T06:26:25;5.00;;;2.28;;
51724;SDS011;37801;53.224;6.552;2022-10-16T06:28:53;7.82;;;2.30;;
51724;SDS011;37801;53.224;6.552;2022-10-16T06:31:21;4.97;;;2.20;;
51724;SDS011;37801;53.224;6.552;2022-10-16T06:33:50;6.35;;;2.33;;
51724;SDS011;37801;53.224;6.552;2022-10-16T06:36:16;5.55;;;2.08;;
51724;SDS011;37801;53.224;6.552;2022-10-16T06:38:43;5.43;;;2.35;;
51724;SDS011;37801;53.224;6.552;2022-10-16T06:41:13;4.55;;;2.10;;
51724;SDS011;37801;53.224;6.552;2022-10-16T06:43:43;5.80;;;2.10;;
51724;SDS011;37801;53.224;6.552;2022-10-16T06:46:13;6.28;;;1.95;;
51724;SDS011;37801;53.224;6.552;2022-10-16T06:48:41;5.00;;;2.17;;
51724;SDS011;37801;53.224;6.552;2022-10-16T06:51:11;4.95;;;1.95;;
51724;SDS011;37801;53.224;6.552;2022-10-16T06:53:43;6.10;;;2.33;;
51724;SDS011;37801;53.224;6.552;2022-10-16T06:56:12;4.65;;;1.75;;
51724;SDS011;37801;53.224;6.552;2022-10-16T06:58:39;5.00;;;1.98;;
51724;SDS011;37801;53.224;6.552;2022-10-16T07:01:05;6.72;;;1.90;;
51724;SDS011;37801;53.224;6.552;2022-10-16T07:03:31;4.78;;;2.10;;
51724;SDS011;37801;53.224;6.552;2022-10-16T07:06:00;5.93;;;2.05;;
51724;SDS011;37801;53.224;6.552;2022-10-16T07:08:30;3.88;;;1.85;;
51724;SDS011;37801;53.224;6.552;2022-10-16T07:11:00;6.95;;;2.22;;
51724;SDS011;37801;53.224;6.552;2022-10-16T07:13:27;4.63;;;2.00;;
51724;SDS011;37801;53.224;6.552;2022-10-16T07:15:53;4.43;;;1.70;;
51724;SDS011;37801;53.224;6.552;2022-10-16T07:18:18;8.68;;;2.50;;
51724;SDS011;37801;53.224;6.552;2022-10-16T07:20:44;3.83;;;1.83;;
51724;SDS011;37801;53.224;6.552;2022-10-16T07:23:10;5.60;;;2.03;;
51724;SDS011;37801;53.224;6.552;2022-10-16T07:25:35;5.57;;;1.80;;
51724;SDS011;37801;53.224;6.552;2022-10-16T07:28:01;5.30;;;1.60;;
51724;SDS011;37801;53.224;6.552;2022-10-16T07:30:27;3.63;;;1.55;;
51724;SDS011;37801;53.224;6.552;2022-10-16T07:32:52;3.78;;;1.58;;
51724;SDS011;37801;53.224;6.552;2022-10-16T07:35:18;5.30;;;1.60;;
51724;SDS011;37801;53.224;6.552;2022-10-16T07:37:45;3.28;;;1.40;;
51724;SDS011;37801;53.224;6.552;2022-10-16T07:40:11;4.53;;;2.03;;
51724;SDS011;37801;53.224;6.552;2022-10-16T07:42:37;4.38;;;1.70;;
51724;SDS011;37801;53.224;6.552;2022-10-16T07:45:02;4.80;;;1.75;;
51724;SDS011;37801;53.224;6.552;2022-10-16T07:47:28;4.05;;;1.75;;
51724;SDS011;37801;53.224;6.552;2022-10-16T07:49:54;5.05;;;1.60;;
51724;SDS011;37801;53.224;6.552;2022-10-16T07:52:20;4.72;;;1.60;;
51724;SDS011;37801;53.224;6.552;2022-10-16T07:54:45;5.20;;;1.85;;
51724;SDS011;37801;53.224;6.552;2022-10-16T07:57:11;6.00;;;1.77;;
51724;SDS011;37801;53.224;6.552;2022-10-16T07:59:43;4.63;;;1.83;;
51724;SDS011;37801;53.224;6.552;2022-10-16T08:02:09;4.13;;;1.98;;
51724;SDS011;37801;53.224;6.552;2022-10-16T08:04:35;6.80;;;2.05;;
51724;SDS011;37801;53.224;6.552;2022-10-16T08:07:00;7.00;;;1.92;;
51724;SDS011;37801;53.224;6.552;2022-10-16T08:09:26;8.52;;;2.35;;
51724;SDS011;37801;53.224;6.552;2022-10-16T08:11:52;5.55;;;2.05;;
51724;SDS011;37801;53.224;6.552;2022-10-16T08:14:17;6.47;;;2.30;;
51724;SDS011;37801;53.224;6.552;2022-10-16T08:16:43;4.57;;;1.98;;
51724;SDS011;37801;53.224;6.552;2022-10-16T08:19:09;6.40;;;2.45;;
51724;SDS011;37801;53.224;6.552;2022-10-16T08:21:34;4.50;;;1.90;;
51724;SDS011;37801;53.224;6.552;2022-10-16T08:24:00;3.47;;;1.90;;
51724;SDS011;37801;53.224;6.552;2022-10-16T08:26:26;7.65;;;1.92;;
51724;SDS011;37801;53.224;6.552;2022-10-16T08:28:52;5.57;;;2.50;;
51724;SDS011;37801;53.224;6.552;2022-10-16T08:31:18;3.28;;;1.60;;
51724;SDS011;37801;53.224;6.552;2022-10-16T08:33:44;2.88;;;1.60;;
51724;SDS011;37801;53.224;6.552;2022-10-16T08:36:12;4.25;;;1.65;;
51724;SDS011;37801;53.224;6.552;2022-10-16T08:38:38;4.18;;;1.77;;
51724;SDS011;37801;53.224;6.552;2022-10-16T08:41:16;4.30;;;2.00;;
51724;SDS011;37801;53.224;6.552;2022-10-16T08:49:12;4.55;;;1.75;;
51724;SDS011;37801;53.224;6.552;2022-10-16T08:51:38;5.82;;;1.48;;
51724;SDS011;37801;53.224;6.552;2022-10-16T08:54:23;3.35;;;1.52;;
51724;SDS011;37801;53.224;6.552;2022-10-16T08:57:04;5.97;;;1.73;;
51724;SDS011;37801;53.224;6.552;2022-10-16T08:59:38;7.70;;;1.38;;
51724;SDS011;37801;53.224;6.552;2022-10-16T09:02:12;6.38;;;1.40;;
51724;SDS011;37801;53.224;6.552;2022-10-16T09:08:06;6.10;;;1.20;;
51724;SDS011;37801;53.224;6.552;2022-10-16T09:16:33;8.93;;;1.27;;
51724;SDS011;37801;53.224;6.552;2022-10-16T09:21:44;2.60;;;1.20;;
51724;SDS011;37801;53.224;6.552;2022-10-16T09:24:17;7.53;;;1.35;;
51724;SDS011;37801;53.224;6.552;2022-10-16T09:26:45;5.60;;;1.38;;
51724;SDS011;37801;53.224;6.552;2022-10-16T09:29:12;6.38;;;1.67;;
51724;SDS011;37801;53.224;6.552;2022-10-16T09:31:39;4.07;;;1.20;;
51724;SDS011;37801;53.224;6.552;2022-10-16T09:34:08;4.13;;;1.40;;
51724;SDS011;37801;53.224;6.552;2022-10-16T09:36:48;5.28;;;1.40;;
51724;SDS011;37801;53.224;6.552;2022-10-16T09:39:14;10.32;;;1.70;;
51724;SDS011;37801;53.224;6.552;2022-10-16T09:41:41;5.43;;;1.60;;
51724;SDS011;37801;53.224;6.552;2022-10-16T09:44:23;5.25;;;1.48;;
51724;SDS011;37801;53.224;6.552;2022-10-16T09:49:28;5.18;;;1.50;;
51724;SDS011;37801;53.224;6.552;2022-10-16T09:52:04;6.90;;;1.75;;
51724;SDS011;37801;53.224;6.552;2022-10-16T09:54:56;7.72;;;1.58;;
51724;SDS011;37801;53.224;6.552;2022-10-16T09:57:22;8.40;;;1.80;;
51724;SDS011;37801;53.224;6.552;2022-10-16T09:59:48;7.50;;;1.60;;
51724;SDS011;37801;53.224;6.552;2022-10-16T10:02:19;7.45;;;1.52;;
51724;SDS011;37801;53.224;6.552;2022-10-16T10:04:56;7.88;;;1.63;;
51724;SDS011;37801;53.224;6.552;2022-10-16T10:07:42;8.18;;;1.90;;
51724;SDS011;37801;53.224;6.552;2022-10-16T10:13:18;10.10;;;1.88;;
51724;SDS011;37801;53.224;6.552;2022-10-16T10:15:45;11.30;;;1.80;;
51724;SDS011;37801;53.224;6.552;2022-10-16T10:18:19;8.32;;;1.58;;
51724;SDS011;37801;53.224;6.552;2022-10-16T10:20:57;8.65;;;1.80;;
51724;SDS011;37801;53.224;6.552;2022-10-16T10:23:27;7.45;;;1.38;;
51724;SDS011;37801;53.224;6.552;2022-10-16T10:31:26;9.20;;;1.70;;
51724;SDS011;37801;53.224;6.552;2022-10-16T10:42:36;9.63;;;1.50;;
51724;SDS011;37801;53.224;6.552;2022-10-16T10:45:13;11.23;;;1.65;;
51724;SDS011;37801;53.224;6.552;2022-10-16T10:47:59;8.25;;;1.80;;
51724;SDS011;37801;53.224;6.552;2022-10-16T11:07:12;6.68;;;1.90;;
51724;SDS011;37801;53.224;6.552;2022-10-16T11:09:53;9.38;;;1.70;;
51724;SDS011;37801;53.224;6.552;2022-10-16T11:12:42;7.53;;;1.65;;
51724;SDS011;37801;53.224;6.552;2022-10-16T11:15:14;10.90;;;1.98;;
51724;SDS011;37801;53.224;6.552;2022-10-16T11:17:46;16.25;;;2.72;;
51724;SDS011;37801;53.224;6.552;2022-10-16T11:20:22;7.28;;;1.80;;
51724;SDS011;37801;53.224;6.552;2022-10-16T11:25:24;9.63;;;2.10;;
51724;SDS011;37801;53.224;6.552;2022-10-16T11:30:39;8.77;;;1.52;;
51724;SDS011;37801;53.224;6.552;2022-10-16T11:40:54;8.43;;;1.90;;
51724;SDS011;37801;53.224;6.552;2022-10-16T11:43:27;8.45;;;1.90;;
51724;SDS011;37801;53.224;6.552;2022-10-16T11:46:24;6.72;;;1.35;;
51724;SDS011;37801;53.224;6.552;2022-10-16T11:51:45;12.43;;;1.97;;
51724;SDS011;37801;53.224;6.552;2022-10-16T11:54:22;6.13;;;1.33;;
51724;SDS011;37801;53.224;6.552;2022-10-16T12:00:35;9.13;;;1.85;;
51724;SDS011;37801;53.224;6.552;2022-10-16T12:05:52;10.13;;;1.67;;
51724;SDS011;37801;53.224;6.552;2022-10-16T12:08:38;10.20;;;2.05;;
51724;SDS011;37801;53.224;6.552;2022-10-16T12:16:38;8.52;;;2.00;;
51724;SDS011;37801;53.224;6.552;2022-10-16T12:19:20;12.98;;;2.47;;
51724;SDS011;37801;53.224;6.552;2022-10-16T12:21:46;7.03;;;1.75;;
51724;SDS011;37801;53.224;6.552;2022-10-16T12:24:21;8.30;;;1.83;;
51724;SDS011;37801;53.224;6.552;2022-10-16T12:26:58;8.57;;;2.22;;
51724;SDS011;37801;53.224;6.552;2022-10-16T12:31:58;6.53;;;1.63;;
51724;SDS011;37801;53.224;6.552;2022-10-16T12:39:49;9.95;;;2.05;;
51724;SDS011;37801;53.224;6.552;2022-10-16T12:42:22;11.95;;;2.33;;
51724;SDS011;37801;53.224;6.552;2022-10-16T12:44:51;9.30;;;2.00;;
51724;SDS011;37801;53.224;6.552;2022-10-16T12:49:56;8.77;;;1.88;;
51724;SDS011;37801;53.224;6.552;2022-10-16T12:52:26;9.68;;;2.55;;
51724;SDS011;37801;53.224;6.552;2022-10-16T12:55:15;10.85;;;2.30;;
51724;SDS011;37801;53.224;6.552;2022-10-16T13:11:05;9.13;;;2.10;;
51724;SDS011;37801;53.224;6.552;2022-10-16T13:17:14;8.40;;;1.80;;
51724;SDS011;37801;53.224;6.552;2022-10-16T13:25:40;9.05;;;1.85;;
51724;SDS011;37801;53.224;6.552;2022-10-16T13:28:31;10.98;;;1.60;;
51724;SDS011;37801;53.224;6.552;2022-10-16T13:31:00;8.50;;;1.70;;
51724;SDS011;37801;53.224;6.552;2022-10-16T13:33:31;6.53;;;1.70;;
51724;SDS011;37801;53.224;6.552;2022-10-16T13:36:00;7.00;;;1.60;;
51724;SDS011;37801;53.224;6.552;2022-10-16T13:38:27;10.02;;;1.80;;
51724;SDS011;37801;53.224;6.552;2022-10-16T13:40:58;7.82;;;1.80;;
51724;SDS011;37801;53.224;6.552;2022-10-16T13:43:27;7.70;;;1.90;;
51724;SDS011;37801;53.224;6.552;2022-10-16T13:46:03;6.22;;;1.73;;
51724;SDS011;37801;53.224;6.552;2022-10-16T13:48:31;8.32;;;1.90;;
51724;SDS011;37801;53.224;6.552;2022-10-16T13:51:17;11.73;;;1.75;;
51724;SDS011;37801;53.224;6.552;2022-10-16T13:53:44;5.10;;;1.25;;
51724;SDS011;37801;53.224;6.552;2022-10-16T13:56:11;7.93;;;1.65;;
51724;SDS011;37801;53.224;6.552;2022-10-16T13:58:42;9.38;;;1.95;;
51724;SDS011;37801;53.224;6.552;2022-10-16T14:01:16;7.80;;;1.40;;
51724;SDS011;37801;53.224;6.552;2022-10-16T14:03:45;11.35;;;2.65;;
51724;SDS011;37801;53.224;6.552;2022-10-16T14:06:13;9.60;;;1.73;;
51724;SDS011;37801;53.224;6.552;2022-10-16T14:08:48;8.15;;;1.85;;
51724;SDS011;37801;53.224;6.552;2022-10-16T14:11:43;10.90;;;2.40;;
51724;SDS011;37801;53.224;6.552;2022-10-16T14:14:13;8.90;;;2.00;;
51724;SDS011;37801;53.224;6.552;2022-10-16T14:16:40;6.93;;;1.75;;
51724;SDS011;37801;53.224;6.552;2022-10-16T14:19:27;9.95;;;2.13;;
51724;SDS011;37801;53.224;6.552;2022-10-16T14:21:54;10.55;;;1.85;;
51724;SDS011;37801;53.224;6.552;2022-10-16T14:24:39;11.73;;;1.75;;
51724;SDS011;37801;53.224;6.552;2022-10-16T14:27:28;7.13;;;1.73;;
51724;SDS011;37801;53.224;6.552;2022-10-16T14:32:42;7.60;;;1.60;;
51724;SDS011;37801;53.224;6.552;2022-10-16T14:35:32;6.75;;;1.70;;
51724;SDS011;37801;53.224;6.552;2022-10-16T14:38:03;9.10;;;2.08;;
51724;SDS011;37801;53.224;6.552;2022-10-16T14:40:31;10.85;;;1.50;;
51724;SDS011;37801;53.224;6.552;2022-10-16T14:42:59;8.73;;;2.05;;
51724;SDS011;37801;53.224;6.552;2022-10-16T14:45:27;13.20;;;1.70;;
51724;SDS011;37801;53.224;6.552;2022-10-16T14:48:05;7.55;;;1.48;;
51724;SDS011;37801;53.224;6.552;2022-10-16T14:50:41;8.50;;;1.83;;
51724;SDS011;37801;53.224;6.552;2022-10-16T14:53:11;9.00;;;2.05;;
51724;SDS011;37801;53.224;6.552;2022-10-16T14:55:37;9.48;;;1.90;;
51724;SDS011;37801;53.224;6.552;2022-10-16T14:58:04;10.73;;;1.58;;
51724;SDS011;37801;53.224;6.552;2022-10-16T15:00:29;12.93;;;2.45;;
51724;SDS011;37801;53.224;6.552;2022-10-16T15:02:55;8.52;;;1.50;;
51724;SDS011;37801;53.224;6.552;2022-10-16T15:05:22;9.30;;;1.98;;
51724;SDS011;37801;53.224;6.552;2022-10-16T15:07:53;8.30;;;1.80;;
51724;SDS011;37801;53.224;6.552;2022-10-16T15:10:21;7.47;;;1.45;;
51724;SDS011;37801;53.224;6.552;2022-10-16T15:12:48;5.97;;;1.30;;
51724;SDS011;37801;53.224;6.552;2022-10-16T15:17:59;6.15;;;1.70;;
51724;SDS011;37801;53.224;6.552;2022-10-16T15:20:30;8.90;;;1.42;;
51724;SDS011;37801;53.224;6.552;2022-10-16T15:22:59;10.93;;;2.13;;
51724;SDS011;37801;53.224;6.552;2022-10-16T15:28:09;9.48;;;1.67;;
51724;SDS011;37801;53.224;6.552;2022-10-16T15:30:36;6.50;;;1.45;;
51724;SDS011;37801;53.224;6.552;2022-10-16T15:33:02;5.45;;;1.42;;
51724;SDS011;37801;53.224;6.552;2022-10-16T15:35:30;5.38;;;1.60;;
51724;SDS011;37801;53.224;6.552;2022-10-16T15:37:56;7.55;;;1.75;;
51724;SDS011;37801;53.224;6.552;2022-10-16T15:40:22;6.45;;;1.73;;
51724;SDS011;37801;53.224;6.552;2022-10-16T15:42:48;9.40;;;2.15;;
51724;SDS011;37801;53.224;6.552;2022-10-16T15:45:14;11.80;;;1.77;;
51724;SDS011;37801;53.224;6.552;2022-10-16T15:47:40;6.35;;;1.67;;
51724;SDS011;37801;53.224;6.552;2022-10-16T15:50:09;7.63;;;2.00;;
51724;SDS011;37801;53.224;6.552;2022-10-16T15:52:36;7.00;;;2.17;;
51724;SDS011;37801;53.224;6.552;2022-10-16T15:55:04;8.13;;;1.95;;
51724;SDS011;37801;53.224;6.552;2022-10-16T15:57:34;8.30;;;2.40;;
51724;SDS011;37801;53.224;6.552;2022-10-16T16:00:04;8.85;;;1.98;;
51724;SDS011;37801;53.224;6.552;2022-10-16T16:02:33;9.93;;;1.90;;
51724;SDS011;37801;53.224;6.552;2022-10-16T16:04:59;8.38;;;2.03;;
51724;SDS011;37801;53.224;6.552;2022-10-16T16:07:26;6.00;;;1.83;;
51724;SDS011;37801;53.224;6.552;2022-10-16T16:09:52;6.05;;;1.80;;
51724;SDS011;37801;53.224;6.552;2022-10-16T16:12:18;10.00;;;2.25;;
51724;SDS011;37801;53.224;6.552;2022-10-16T16:14:44;7.55;;;2.03;;
51724;SDS011;37801;53.224;6.552;2022-10-16T16:17:11;7.38;;;1.77;;
51724;SDS011;37801;53.224;6.552;2022-10-16T16:19:36;6.60;;;1.75;;
51724;SDS011;37801;53.224;6.552;2022-10-16T16:22:02;10.25;;;1.98;;
51724;SDS011;37801;53.224;6.552;2022-10-16T16:24:28;7.97;;;1.92;;
51724;SDS011;37801;53.224;6.552;2022-10-16T16:26:54;9.20;;;1.80;;
51724;SDS011;37801;53.224;6.552;2022-10-16T16:29:19;8.07;;;2.03;;
51724;SDS011;37801;53.224;6.552;2022-10-16T16:31:45;8.93;;;1.65;;
51724;SDS011;37801;53.224;6.552;2022-10-16T16:34:12;8.98;;;2.08;;
51724;SDS011;37801;53.224;6.552;2022-10-16T16:36:38;7.70;;;2.25;;
51724;SDS011;37801;53.224;6.552;2022-10-16T16:39:05;10.05;;;2.25;;
51724;SDS011;37801;53.224;6.552;2022-10-16T16:41:32;8.98;;;2.53;;
51724;SDS011;37801;53.224;6.552;2022-10-16T16:44:03;6.45;;;1.55;;
51724;SDS011;37801;53.224;6.552;2022-10-16T16:46:30;6.25;;;2.00;;
51724;SDS011;37801;53.224;6.552;2022-10-16T16:48:57;5.72;;;1.80;;
51724;SDS011;37801;53.224;6.552;2022-10-16T16:51:24;8.68;;;2.30;;
51724;SDS011;37801;53.224;6.552;2022-10-16T16:53:50;10.52;;;2.75;;
51724;SDS011;37801;53.224;6.552;2022-10-16T16:56:18;8.43;;;2.33;;
51724;SDS011;37801;53.224;6.552;2022-10-16T16:58:48;8.43;;;2.47;;
51724;SDS011;37801;53.224;6.552;2022-10-16T17:01:15;7.78;;;3.05;;
51724;SDS011;37801;53.224;6.552;2022-10-16T17:03:41;8.57;;;3.22;;
51724;SDS011;37801;53.224;6.552;2022-10-16T17:06:11;10.02;;;2.92;;
51724;SDS011;37801;53.224;6.552;2022-10-16T17:08:39;6.93;;;2.70;;
51724;SDS011;37801;53.224;6.552;2022-10-16T17:11:05;9.18;;;3.00;;
51724;SDS011;37801;53.224;6.552;2022-10-16T17:13:32;10.98;;;3.30;;
51724;SDS011;37801;53.224;6.552;2022-10-16T17:16:03;9.68;;;3.10;;